createdAt,value
2022-07-30T00:01:28.982Z,26.00
2022-07-30T00:03:59.060Z,26.00
2022-07-30T00:06:29.120Z,26.00
2022-07-30T00:08:59.419Z,26.00
2022-07-30T00:11:30.305Z,25.98
2022-07-30T00:14:00.138Z,25.98
2022-07-30T00:16:32.862Z,25.99
2022-07-30T00:19:03.136Z,26.00
2022-07-30T00:21:38.711Z,26.00
2022-07-30T00:24:04.655Z,26.00
2022-07-30T00:26:34.289Z,25.99
2022-07-30T00:29:03.955Z,25.90
2022-07-30T00:31:33.535Z,25.91
2022-07-30T00:34:03.260Z,25.94
2022-07-30T00:36:33.016Z,25.95
2022-07-30T00:39:02.683Z,25.96
2022-07-30T00:41:32.299Z,25.93
2022-07-30T00:44:01.890Z,25.93
2022-07-30T00:46:31.564Z,25.89
2022-07-30T00:49:04.766Z,25.84
2022-07-30T00:51:34.091Z,25.95
2022-07-30T00:54:05.127Z,25.94
2022-07-30T00:56:37.935Z,25.83
2022-07-30T00:59:10.574Z,25.75
2022-07-30T01:01:40.246Z,25.87
2022-07-30T01:04:13.099Z,25.89
2022-07-30T01:06:44.420Z,25.89
2022-07-30T01:09:14.282Z,25.84
2022-07-30T01:11:44.148Z,25.83
2022-07-30T01:14:13.837Z,25.88
2022-07-30T01:16:44.217Z,25.90
2022-07-30T01:19:46.323Z,25.90
2022-07-30T01:22:21.600Z,25.90
2022-07-30T01:25:07.351Z,25.85
2022-07-30T01:27:42.585Z,25.88
2022-07-30T01:30:12.822Z,25.89
2022-07-30T01:32:45.050Z,25.89
2022-07-30T01:35:14.831Z,25.90
2022-07-30T01:37:44.380Z,25.84
2022-07-30T01:40:15.550Z,25.84
2022-07-30T01:42:45.712Z,25.86
2022-07-30T01:45:15.394Z,25.89
2022-07-30T01:47:45.247Z,25.90
2022-07-30T01:50:15.316Z,25.86
2022-07-30T01:52:49.161Z,25.71
2022-07-30T01:55:28.885Z,25.76
2022-07-30T01:58:04.669Z,25.79
2022-07-30T02:00:34.796Z,25.82
2022-07-30T02:03:04.665Z,25.83
2022-07-30T02:05:36.587Z,25.70
2022-07-30T02:08:15.063Z,25.72
2022-07-30T02:10:53.607Z,25.77
2022-07-30T02:13:25.243Z,25.78
2022-07-30T02:16:16.362Z,25.81
2022-07-30T02:18:53.522Z,25.72
2022-07-30T02:21:23.271Z,25.77
2022-07-30T02:23:52.963Z,25.80
2022-07-30T02:26:24.521Z,25.81
2022-07-30T02:29:01.032Z,25.81
2022-07-30T02:31:31.183Z,25.82
2022-07-30T02:34:02.088Z,25.69
2022-07-30T02:36:32.050Z,25.72
2022-07-30T02:39:01.927Z,25.76
2022-07-30T02:41:31.814Z,25.77
2022-07-30T02:44:02.542Z,25.79
2022-07-30T02:46:33.623Z,25.75
2022-07-30T02:49:03.496Z,25.67
2022-07-30T02:51:33.427Z,25.70
2022-07-30T02:54:08.788Z,25.73
2022-07-30T02:56:40.205Z,25.75
2022-07-30T02:59:09.824Z,25.76
2022-07-30T03:01:43.011Z,25.68
2022-07-30T03:04:17.049Z,25.59
2022-07-30T03:06:47.219Z,25.59
2022-07-30T03:09:19.859Z,25.73
2022-07-30T03:11:50.533Z,25.76
2022-07-30T03:14:23.095Z,25.77
2022-07-30T03:16:58.029Z,25.77
2022-07-30T03:19:29.965Z,25.78
2022-07-30T03:22:01.500Z,25.79
2022-07-30T03:24:31.203Z,25.81
2022-07-30T03:27:04.326Z,25.81
2022-07-30T03:29:38.759Z,25.82
2022-07-30T03:32:08.826Z,25.84
2022-07-30T03:34:40.606Z,25.85
2022-07-30T03:37:10.754Z,25.86
2022-07-30T03:39:40.359Z,25.86
2022-07-30T03:42:10.067Z,25.88
2022-07-30T03:44:40.531Z,25.89
2022-07-30T03:47:11.547Z,25.91
2022-07-30T03:49:41.367Z,25.91
2022-07-30T03:52:11.275Z,25.93
2022-07-30T03:54:41.850Z,25.93
2022-07-30T03:57:11.411Z,25.95
2022-07-30T03:59:42.786Z,25.95
2022-07-30T04:02:12.619Z,25.96
2022-07-30T04:04:46.952Z,25.98
2022-07-30T04:07:17.155Z,25.98
2022-07-30T04:09:47.092Z,26.00
2022-07-30T04:12:17.624Z,26.00
2022-07-30T04:14:47.802Z,26.01
2022-07-30T04:17:26.471Z,26.02
2022-07-30T04:19:59.728Z,26.04
2022-07-30T04:22:33.288Z,26.04
2022-07-30T04:25:07.694Z,26.05
2022-07-30T04:27:36.692Z,26.06
2022-07-30T04:30:07.946Z,26.07
2022-07-30T04:32:38.119Z,26.10
2022-07-30T04:35:08.471Z,26.10
2022-07-30T04:37:38.142Z,26.11
2022-07-30T04:40:09.111Z,26.11
2022-07-30T04:42:38.782Z,26.09
2022-07-30T04:45:14.026Z,26.11
2022-07-30T04:47:43.882Z,26.13
2022-07-30T04:50:13.749Z,26.14
2022-07-30T04:52:43.420Z,26.15
2022-07-30T04:55:13.060Z,26.16
2022-07-30T04:57:43.248Z,26.16
2022-07-30T05:00:13.728Z,26.18
2022-07-30T05:02:43.464Z,26.19
2022-07-30T05:05:14.659Z,26.20
2022-07-30T05:07:45.050Z,26.18
2022-07-30T05:10:14.787Z,26.09
2022-07-30T05:12:44.648Z,26.14
2022-07-30T05:15:15.019Z,26.18
2022-07-30T05:17:45.863Z,26.19
2022-07-30T05:20:15.491Z,26.21
2022-07-30T05:22:50.715Z,26.21
2022-07-30T05:25:18.072Z,26.22
2022-07-30T05:27:47.809Z,26.22
2022-07-30T05:30:17.392Z,26.23
2022-07-30T05:32:46.949Z,26.20
2022-07-30T05:35:16.781Z,26.17
2022-07-30T05:37:46.470Z,26.19
2022-07-30T05:40:17.301Z,26.22
2022-07-30T05:42:49.777Z,26.23
2022-07-30T05:45:19.424Z,26.24
2022-07-30T05:47:51.909Z,26.25
2022-07-30T05:50:21.727Z,26.25
2022-07-30T05:52:51.553Z,26.26
2022-07-30T05:55:21.523Z,26.27
2022-07-30T05:57:51.242Z,26.27
2022-07-30T06:00:20.991Z,26.23
2022-07-30T06:02:50.610Z,26.21
2022-07-30T06:05:20.611Z,26.22
2022-07-30T06:07:50.299Z,26.25
2022-07-30T06:10:19.932Z,26.26
2022-07-30T06:12:49.509Z,26.26
2022-07-30T06:15:25.934Z,26.27
2022-07-30T06:18:01.855Z,26.28
2022-07-30T06:20:23.846Z,26.29
2022-07-30T06:22:53.442Z,26.29
2022-07-30T06:25:23.344Z,26.30
2022-07-30T06:27:53.502Z,26.28
2022-07-30T06:30:30.530Z,26.19
2022-07-30T06:32:55.820Z,26.22
2022-07-30T06:35:28.444Z,26.24
2022-07-30T06:38:07.447Z,26.26
2022-07-30T06:40:34.450Z,26.25
2022-07-30T06:43:04.943Z,26.27
2022-07-30T06:45:36.607Z,26.29
2022-07-30T06:48:06.582Z,26.30
2022-07-30T06:50:37.890Z,26.29
2022-07-30T06:53:07.455Z,26.30
2022-07-30T06:55:37.087Z,26.27
2022-07-30T06:58:09.397Z,26.18
2022-07-30T07:00:39.288Z,26.22
2022-07-30T07:03:11.753Z,26.14
2022-07-30T07:05:40.642Z,26.14
2022-07-30T07:08:12.521Z,26.27
2022-07-30T07:10:41.604Z,26.28
2022-07-30T07:13:11.283Z,26.29
2022-07-30T07:15:40.986Z,26.29
2022-07-30T07:18:10.801Z,26.29
2022-07-30T07:20:40.389Z,26.30
2022-07-30T07:23:12.388Z,26.30
2022-07-30T07:25:41.648Z,26.23
2022-07-30T07:28:13.537Z,26.22
2022-07-30T07:30:44.056Z,26.24
2022-07-30T07:33:15.514Z,26.26
2022-07-30T07:35:48.961Z,26.27
2022-07-30T07:38:16.468Z,26.29
2022-07-30T07:40:46.144Z,26.29
2022-07-30T07:43:15.882Z,26.30
2022-07-30T07:45:46.288Z,26.30
2022-07-30T07:48:15.972Z,26.30
2022-07-30T07:50:45.530Z,26.29
2022-07-30T07:53:15.188Z,26.20
2022-07-30T07:55:44.812Z,26.22
2022-07-30T07:58:23.305Z,26.25
2022-07-30T08:00:46.497Z,26.26
2022-07-30T08:03:16.057Z,26.27
2022-07-30T08:05:56.857Z,26.27
2022-07-30T08:08:17.261Z,26.28
2022-07-30T08:10:46.921Z,26.30
2022-07-30T08:13:49.320Z,26.31
2022-07-30T08:15:48.281Z,26.30
2022-07-30T08:18:17.939Z,26.30
2022-07-30T08:20:47.590Z,26.30
2022-07-30T08:23:17.215Z,26.31
2022-07-30T08:25:46.892Z,26.29
2022-07-30T08:28:35.241Z,26.19
2022-07-30T08:30:48.114Z,26.22
2022-07-30T08:33:17.992Z,26.24
2022-07-30T08:35:48.635Z,26.26
2022-07-30T08:38:19.161Z,26.26
2022-07-30T08:40:49.082Z,26.27
2022-07-30T08:43:18.802Z,26.28
2022-07-30T08:48:18.275Z,26.21
2022-07-30T08:50:47.978Z,26.30
2022-07-30T08:53:17.741Z,26.30
2022-07-30T08:55:47.510Z,26.30
2022-07-30T08:58:35.726Z,26.31
2022-07-30T09:01:05.893Z,26.30
2022-07-30T09:03:35.548Z,26.32
2022-07-30T09:06:07.233Z,26.31
2022-07-30T09:08:37.023Z,26.20
2022-07-30T09:11:06.603Z,26.20
2022-07-30T09:13:39.687Z,26.22
2022-07-30T09:16:09.532Z,26.25
2022-07-30T09:18:40.217Z,26.26
2022-07-30T09:21:26.031Z,26.26
2022-07-30T09:24:05.964Z,26.28
2022-07-30T09:26:36.527Z,26.28
2022-07-30T09:29:20.578Z,26.29
2022-07-30T09:31:57.219Z,26.29
2022-07-30T09:34:32.752Z,26.29
2022-07-30T09:37:04.394Z,26.30
2022-07-30T09:39:38.596Z,26.29
2022-07-30T09:42:22.277Z,26.30
2022-07-30T09:44:52.058Z,26.30
2022-07-30T09:47:34.388Z,26.30
2022-07-30T09:50:08.909Z,26.30
2022-07-30T09:52:44.043Z,26.33
2022-07-30T09:55:10.910Z,26.33
2022-07-30T09:58:02.484Z,26.26
2022-07-30T10:00:32.971Z,26.23
2022-07-30T10:03:12.568Z,26.24
2022-07-30T10:05:34.041Z,26.26
2022-07-30T10:08:09.422Z,26.27
2022-07-30T10:10:47.034Z,26.27
2022-07-30T10:13:09.693Z,26.28
2022-07-30T10:15:40.976Z,26.29
2022-07-30T10:18:12.187Z,26.30
2022-07-30T10:20:43.155Z,26.30
2022-07-30T10:23:15.915Z,26.30
2022-07-30T10:25:54.934Z,26.31
2022-07-30T10:28:16.496Z,26.30
2022-07-30T10:30:46.297Z,26.31
2022-07-30T10:33:35.171Z,26.31
2022-07-30T10:35:49.598Z,26.31
2022-07-30T10:38:20.033Z,26.31
2022-07-30T10:41:02.431Z,26.31
2022-07-30T10:43:57.426Z,26.30
2022-07-30T10:46:30.503Z,26.29
2022-07-30T10:49:19.005Z,26.28
2022-07-30T10:51:53.112Z,26.27
2022-07-30T10:54:45.214Z,26.27
2022-07-30T10:57:31.760Z,26.26
2022-07-30T11:00:01.053Z,26.24
2022-07-30T11:02:32.218Z,26.21
2022-07-30T11:05:32.574Z,26.20
2022-07-30T11:07:54.588Z,26.18
2022-07-30T11:10:44.066Z,26.17
2022-07-30T11:13:13.953Z,26.16
2022-07-30T11:16:02.284Z,26.15
2022-07-30T11:18:33.708Z,26.13
2022-07-30T11:21:22.557Z,26.12
2022-07-30T11:23:56.702Z,26.11
2022-07-30T11:26:46.736Z,26.10
2022-07-30T11:29:36.588Z,26.10
2022-07-30T11:32:27.566Z,26.08
2022-07-30T11:35:23.543Z,26.08
2022-07-30T11:38:00.848Z,26.08
2022-07-30T11:40:32.505Z,26.06
2022-07-30T11:43:34.523Z,26.06
2022-07-30T11:46:12.217Z,26.04
2022-07-30T11:48:45.477Z,26.02
2022-07-30T11:51:15.544Z,26.02
2022-07-30T11:53:46.679Z,26.02
2022-07-30T11:56:17.440Z,26.02
2022-07-30T11:58:47.213Z,26.03
2022-07-30T12:01:17.780Z,26.02
2022-07-30T12:03:48.441Z,26.02
2022-07-30T12:06:21.431Z,25.92
2022-07-30T12:08:57.854Z,26.02
2022-07-30T12:11:23.513Z,26.02
2022-07-30T12:14:00.595Z,26.01
2022-07-30T12:16:31.476Z,25.98
2022-07-30T12:19:09.463Z,26.01
2022-07-30T12:24:13.079Z,25.99
2022-07-30T12:26:42.866Z,25.99
2022-07-30T12:29:13.919Z,26.00
2022-07-30T12:31:43.872Z,26.00
2022-07-30T12:34:23.877Z,26.01
2022-07-30T12:36:54.308Z,26.01
2022-07-30T12:39:28.051Z,26.00
2022-07-30T12:42:02.172Z,26.01
2022-07-30T12:44:46.263Z,26.01
2022-07-30T12:47:28.885Z,26.00
2022-07-30T12:50:02.470Z,25.99
2022-07-30T12:52:34.616Z,26.00
2022-07-30T12:55:14.526Z,26.00
2022-07-30T12:58:08.596Z,26.00
2022-07-30T13:00:52.061Z,25.99
2022-07-30T13:03:29.504Z,25.98
2022-07-30T13:06:08.388Z,25.71
2022-07-30T13:08:52.626Z,25.59
2022-07-30T13:11:31.250Z,25.59
2022-07-30T13:14:00.939Z,25.78
2022-07-30T13:16:35.583Z,25.77
2022-07-30T13:19:10.567Z,25.58
2022-07-30T13:21:49.666Z,25.59
2022-07-30T13:24:18.191Z,25.65
2022-07-30T13:26:46.439Z,25.70
2022-07-30T13:29:19.166Z,25.72
2022-07-30T13:31:48.844Z,25.66
2022-07-30T13:34:18.572Z,25.52
2022-07-30T13:36:48.281Z,25.57
2022-07-30T13:39:21.599Z,25.62
2022-07-30T13:41:52.122Z,25.66
2022-07-30T13:44:22.285Z,25.68
2022-07-30T13:46:52.274Z,25.43
2022-07-30T13:49:24.813Z,25.51
2022-07-30T13:51:56.162Z,25.54
2022-07-30T13:54:32.583Z,25.60
2022-07-30T13:57:02.479Z,25.63
2022-07-30T13:59:35.213Z,25.65
2022-07-30T14:02:07.352Z,25.67
2022-07-30T14:04:42.554Z,25.62
2022-07-30T14:07:13.635Z,25.48
2022-07-30T14:09:45.842Z,25.54
2022-07-30T14:12:14.945Z,25.58
2022-07-30T14:14:45.051Z,25.61
2022-07-30T14:17:18.864Z,25.63
2022-07-30T14:19:51.873Z,25.49
2022-07-30T14:22:23.135Z,25.46
2022-07-30T14:24:54.017Z,25.51
2022-07-30T14:27:24.624Z,25.56
2022-07-30T14:29:54.649Z,25.56
2022-07-30T14:32:24.869Z,25.60
2022-07-30T14:34:56.161Z,25.61
2022-07-30T14:37:25.740Z,25.63
2022-07-30T14:39:57.321Z,25.62
2022-07-30T14:42:26.872Z,25.50
2022-07-30T14:44:57.109Z,25.51
2022-07-30T14:47:27.055Z,25.55
2022-07-30T14:49:56.838Z,25.57
2022-07-30T14:52:26.701Z,25.60
2022-07-30T14:54:56.366Z,25.61
2022-07-30T14:57:26.044Z,25.62
2022-07-30T14:59:56.205Z,25.45
2022-07-30T15:02:26.073Z,25.50
2022-07-30T15:04:58.240Z,25.55
2022-07-30T15:07:27.892Z,25.57
2022-07-30T15:09:57.715Z,25.60
2022-07-30T15:12:27.545Z,25.62
2022-07-30T15:15:00.743Z,25.63
2022-07-30T15:17:30.532Z,25.55
2022-07-30T15:20:01.952Z,25.55
2022-07-30T15:22:32.185Z,25.58
2022-07-30T15:25:03.555Z,25.61
2022-07-30T15:27:34.565Z,25.62
2022-07-30T15:30:04.711Z,25.65
2022-07-30T15:32:34.777Z,25.65
2022-07-30T15:35:13.156Z,25.64
2022-07-30T15:37:39.900Z,25.52
2022-07-30T15:40:10.338Z,25.56
2022-07-30T15:42:40.448Z,25.59
2022-07-30T15:45:18.682Z,25.61
2022-07-30T15:47:42.406Z,25.62
2022-07-30T15:50:12.865Z,25.62
2022-07-30T15:52:42.706Z,25.51
2022-07-30T15:55:13.578Z,25.55
2022-07-30T15:58:43.285Z,25.57
2022-07-30T16:01:15.929Z,25.59
2022-07-30T16:03:48.072Z,25.60
2022-07-30T16:06:26.243Z,25.61
2022-07-30T16:09:00.586Z,25.61
2022-07-30T16:11:36.970Z,25.61
2022-07-30T16:14:08.358Z,25.62
2022-07-30T16:16:38.964Z,25.60
2022-07-30T16:19:08.666Z,25.54
2022-07-30T16:21:39.055Z,25.55
2022-07-30T16:24:10.047Z,25.56
2022-07-30T16:26:40.822Z,25.58
2022-07-30T16:29:13.829Z,25.58
2022-07-30T16:31:43.082Z,25.59
2022-07-30T16:34:12.768Z,25.60
2022-07-30T16:36:42.942Z,25.61
2022-07-30T16:39:13.206Z,25.61
2022-07-30T16:41:43.224Z,25.61
2022-07-30T16:44:13.240Z,25.55
2022-07-30T16:46:43.134Z,25.50
2022-07-30T16:49:12.930Z,25.53
2022-07-30T16:51:43.620Z,25.55
2022-07-30T16:54:14.139Z,25.57
2022-07-30T16:56:43.858Z,25.59
2022-07-30T16:59:15.229Z,25.59
2022-07-30T17:01:45.034Z,25.60
2022-07-30T17:04:14.698Z,25.60
2022-07-30T17:06:45.515Z,25.56
2022-07-30T17:09:16.107Z,25.57
2022-07-30T17:11:47.092Z,25.58
2022-07-30T17:14:17.440Z,25.59
2022-07-30T17:16:47.444Z,25.60
2022-07-30T17:19:17.127Z,25.61
2022-07-30T17:21:46.837Z,25.62
2022-07-30T17:24:16.775Z,25.61
2022-07-30T17:26:47.475Z,25.59
2022-07-30T17:29:17.391Z,25.55
2022-07-30T17:31:47.326Z,25.57
2022-07-30T17:34:18.942Z,25.58
2022-07-30T17:36:52.417Z,25.59
2022-07-30T17:40:18.983Z,25.61
2022-07-30T17:42:06.832Z,25.61
2022-07-30T17:44:26.591Z,25.61
2022-07-30T17:46:56.165Z,25.56
2022-07-30T17:49:26.616Z,25.55
2022-07-30T17:51:56.716Z,25.57
2022-07-30T17:54:26.290Z,25.58
2022-07-30T17:56:56.585Z,25.60
2022-07-30T17:59:26.182Z,25.61
2022-07-30T18:01:56.350Z,25.60
2022-07-30T18:04:26.358Z,25.54
2022-07-30T18:06:56.250Z,25.57
2022-07-30T18:09:26.364Z,25.60
2022-07-30T18:11:56.633Z,25.60
2022-07-30T18:14:26.225Z,25.60
2022-07-30T18:16:57.489Z,25.60
2022-07-30T18:19:27.582Z,25.61
2022-07-30T18:21:57.534Z,25.60
2022-07-30T18:24:27.628Z,25.60
2022-07-30T18:26:58.007Z,25.61
2022-07-30T18:29:27.758Z,25.62
2022-07-30T18:31:57.815Z,25.62
2022-07-30T18:34:28.866Z,25.62
2022-07-30T18:36:59.677Z,25.62
2022-07-30T18:39:29.407Z,25.59
2022-07-30T18:41:59.633Z,25.60
2022-07-30T18:44:29.346Z,25.61
2022-07-30T18:46:59.079Z,25.63
2022-07-30T18:49:37.410Z,25.63
2022-07-30T18:52:02.738Z,25.63
2022-07-30T18:54:32.841Z,25.61
2022-07-30T18:57:02.722Z,25.61
2022-07-30T18:59:32.545Z,25.61
2022-07-30T19:02:02.769Z,25.62
2022-07-30T19:04:33.001Z,25.63
2022-07-30T19:07:02.701Z,25.64
2022-07-30T19:09:32.579Z,25.61
2022-07-30T19:12:02.700Z,25.63
2022-07-30T19:14:32.633Z,25.62
2022-07-30T19:17:02.570Z,25.63
2022-07-30T19:19:32.292Z,25.64
2022-07-30T19:22:02.202Z,25.63
2022-07-30T19:24:32.098Z,25.62
2022-07-30T19:27:02.157Z,25.62
2022-07-30T19:29:31.897Z,25.63
2022-07-30T19:32:01.802Z,25.64
2022-07-30T19:34:32.273Z,25.52
2022-07-30T19:37:01.995Z,25.64
2022-07-30T19:39:31.568Z,25.66
2022-07-30T19:42:03.985Z,25.67
2022-07-30T19:44:37.866Z,25.64
2022-07-30T19:47:05.986Z,25.67
2022-07-30T19:49:37.321Z,25.65
2022-07-30T19:52:23.230Z,25.66
2022-07-30T19:54:43.974Z,25.64
2022-07-30T19:57:13.762Z,25.65
2022-07-30T19:59:59.565Z,25.66
2022-07-30T20:02:17.521Z,25.67
2022-07-30T20:04:47.191Z,25.67
2022-07-30T20:07:16.840Z,25.68
2022-07-30T20:09:48.537Z,25.68
2022-07-30T20:12:19.126Z,25.69
2022-07-30T20:14:53.530Z,25.69
2022-07-30T20:17:23.865Z,25.69
2022-07-30T20:19:56.542Z,25.64
2022-07-30T20:22:27.910Z,25.68
2022-07-30T20:24:57.740Z,25.70
2022-07-30T20:27:36.349Z,25.69
2022-07-30T20:30:00.419Z,25.69
2022-07-30T20:32:30.963Z,25.69
2022-07-30T20:35:01.151Z,25.69
2022-07-30T20:37:30.898Z,25.68
2022-07-30T20:40:00.573Z,25.70
2022-07-30T20:42:30.464Z,25.70
2022-07-30T20:45:00.845Z,25.70
2022-07-30T20:47:38.244Z,25.72
2022-07-30T20:50:03.746Z,25.72
2022-07-30T20:52:33.368Z,25.72
2022-07-30T20:55:02.939Z,25.72
2022-07-30T20:57:56.989Z,25.72
2022-07-30T21:00:04.280Z,25.74
2022-07-30T21:02:35.517Z,25.73
2022-07-30T21:05:07.289Z,25.73
2022-07-30T21:07:37.222Z,25.75
2022-07-30T21:10:07.768Z,25.73
2022-07-30T21:12:37.415Z,25.73
2022-07-30T21:15:23.781Z,25.73
2022-07-30T21:17:41.976Z,25.73
2022-07-30T21:20:13.318Z,25.73
2022-07-30T21:22:43.995Z,25.73
2022-07-30T21:25:13.692Z,25.72
2022-07-30T21:27:43.823Z,25.72
2022-07-30T21:30:14.105Z,25.72
2022-07-30T21:32:45.301Z,25.72
2022-07-30T21:35:14.940Z,25.72
2022-07-30T21:37:45.118Z,25.71
2022-07-30T21:40:15.286Z,25.72
2022-07-30T21:42:48.592Z,25.70
2022-07-30T21:45:19.220Z,25.71
2022-07-30T21:47:49.190Z,25.71
2022-07-30T21:50:20.586Z,25.71
2022-07-30T21:52:50.968Z,25.71
2022-07-30T21:55:22.732Z,25.72
2022-07-30T21:57:52.579Z,25.72
2022-07-30T22:00:23.815Z,25.73
2022-07-30T22:02:54.670Z,25.72
2022-07-30T22:05:38.772Z,25.74
2022-07-30T22:07:56.719Z,25.73
2022-07-30T22:10:27.440Z,25.74
2022-07-30T22:12:57.818Z,25.72
2022-07-30T22:15:28.111Z,25.72
2022-07-30T22:18:10.134Z,25.75
2022-07-30T22:20:41.663Z,25.74
2022-07-30T22:23:11.939Z,25.74
2022-07-30T22:25:44.927Z,25.72
2022-07-30T22:28:13.998Z,25.65
2022-07-30T22:30:45.405Z,25.68
2022-07-30T22:33:21.153Z,25.70
2022-07-30T22:35:51.324Z,25.72
2022-07-30T22:38:21.173Z,25.73
2022-07-30T22:40:52.835Z,25.75
2022-07-30T22:43:23.970Z,25.78
2022-07-30T22:45:56.114Z,25.89
2022-07-30T22:48:27.792Z,25.89
2022-07-30T22:50:58.516Z,25.89
2022-07-30T22:54:03.512Z,25.86
2022-07-30T22:56:00.486Z,25.86
2022-07-30T22:58:30.123Z,25.86
2022-07-30T23:00:59.685Z,25.86
2022-07-30T23:03:29.377Z,25.87
2022-07-30T23:05:59.802Z,25.88
2022-07-30T23:08:31.032Z,25.89
2022-07-30T23:11:02.026Z,25.90
2022-07-30T23:13:31.774Z,25.91
2022-07-30T23:16:01.535Z,25.93
2022-07-30T23:18:31.127Z,25.94
2022-07-30T23:21:01.096Z,25.94
2022-07-30T23:23:34.000Z,25.94
2022-07-30T23:26:05.368Z,25.96
2022-07-30T23:28:37.871Z,25.96
2022-07-30T23:31:08.075Z,25.95
2022-07-30T23:33:37.838Z,25.97
2022-07-30T23:36:08.346Z,25.95
2022-07-30T23:38:38.816Z,25.95
2022-07-30T23:41:08.608Z,25.96
2022-07-30T23:43:38.511Z,25.98
2022-07-30T23:46:10.984Z,25.98
2022-07-30T23:48:39.714Z,25.98
2022-07-30T23:51:09.812Z,25.98
2022-07-30T23:53:40.415Z,25.98
2022-07-30T23:56:12.993Z,25.99
2022-07-30T23:58:46.706Z,25.98
